Time;durP1;ratioP1;P1;durP2;ratioP2;P2;SDS_P1;SDS_P2;PMS_P1;PMS_P2;Temp;Humidity;BMP_temperature;BMP_pressure;BME280_temperature;BME280_humidity;BME280_pressure;Samples;Min_cycle;Max_cycle;Signal;HPM_P1;HPM_P2
2022/02/08 00:01:35;;;;;;;5.15;4.40;;;;;;;1.25;65.13;94791.84;5029059;28;20040;-76
2022/02/08 00:04:01;;;;;;;5.93;5.00;;;;;;;1.20;65.27;94786.13;5028831;28;20087;-76
2022/02/08 00:06:44;;;;;;;7.20;4.82;;;;;;;1.21;64.72;94790.44;5029107;28;20476;-76
2022/02/08 00:09:11;;;;;;;5.82;4.60;;;;;;;1.19;64.83;94781.81;5027592;28;20538;-76
2022/02/08 00:11:36;;;;;;;5.50;4.18;;;;;;;1.18;65.07;94782.75;5028847;28;20033;-76
2022/02/08 00:14:03;;;;;;;10.18;5.28;;;;;;;1.20;64.65;94783.47;5027551;28;20033;-76
2022/02/08 00:16:29;;;;;;;6.72;4.90;;;;;;;1.17;65.28;94787.22;4995228;28;20492;-76
2022/02/08 00:18:54;;;;;;;8.95;4.80;;;;;;;1.18;64.85;94790.69;5028471;28;20033;-76
2022/02/08 00:21:20;;;;;;;5.85;4.63;;;;;;;1.18;64.33;94780.13;5027364;28;20021;-76
2022/02/08 00:23:45;;;;;;;7.60;4.57;;;;;;;1.17;64.57;94789.03;5027789;28;20032;-76
2022/02/08 00:26:11;;;;;;;5.15;4.40;;;;;;;1.14;64.40;94784.84;5026998;28;20025;-75
2022/02/08 00:28:37;;;;;;;11.27;4.90;;;;;;;1.08;64.77;94772.19;5028508;28;20514;-77
2022/02/08 00:31:02;;;;;;;5.80;4.40;;;;;;;1.11;64.15;94775.38;5028505;28;20022;-77
2022/02/08 00:33:28;;;;;;;6.43;4.05;;;;;;;1.06;65.16;94780.25;5010670;28;20052;-76
2022/02/08 00:35:53;;;;;;;5.00;4.50;;;;;;;1.06;64.39;94782.91;5027041;28;20025;-77
2022/02/08 00:38:18;;;;;;;7.45;4.68;;;;;;;1.05;64.55;94775.09;5028222;28;20041;-76
2022/02/08 00:40:47;;;;;;;6.45;4.20;;;;;;;1.04;64.43;94789.25;5010728;28;20029;-76
2022/02/08 00:43:15;;;;;;;5.57;4.63;;;;;;;1.09;64.11;94787.91;5010670;28;20028;-76
2022/02/08 00:46:19;;;;;;;5.50;4.32;;;;;;;1.08;64.23;94775.66;5028308;28;20033;-76
2022/02/08 00:48:40;;;;;;;5.72;4.38;;;;;;;1.05;64.53;94796.25;5026015;28;20048;-75
2022/02/08 00:51:06;;;;;;;7.68;4.45;;;;;;;1.04;64.22;94805.97;5028025;28;20549;-75
2022/02/08 00:53:31;;;;;;;6.07;4.35;;;;;;;1.05;63.89;94783.03;5027027;28;20437;-76
2022/02/08 00:55:57;;;;;;;6.30;4.50;;;;;;;1.02;64.29;94792.03;5028141;28;20033;-76
2022/02/08 00:58:22;;;;;;;5.95;4.25;;;;;;;1.00;64.06;94796.59;5010287;28;20032;-76
2022/02/08 01:00:47;;;;;;;9.27;4.18;;;;;;;1.05;64.55;94804.16;5010363;28;20111;-76
2022/02/08 01:03:13;;;;;;;7.28;4.85;;;;;;;1.03;64.14;94792.88;5026931;28;20113;-75
2022/02/08 01:05:45;;;;;;;5.50;4.28;;;;;;;0.97;64.43;94805.66;5026997;28;20401;-75
2022/02/08 01:08:10;;;;;;;9.60;4.75;;;;;;;0.98;63.74;94791.47;5011012;28;20029;-76
2022/02/08 01:10:38;;;;;;;5.05;4.30;;;;;;;1.01;63.99;94811.50;5026390;28;20033;-77
2022/02/08 01:13:05;;;;;;;6.90;3.97;;;;;;;0.96;63.75;94808.41;5027780;28;20113;-75
2022/02/08 01:15:30;;;;;;;10.45;4.38;;;;;;;0.93;63.54;94820.09;5026527;28;20475;-77
2022/02/08 01:17:58;;;;;;;5.30;4.13;;;;;;;0.95;63.11;94804.94;5010126;28;20487;-77
2022/02/08 01:20:31;;;;;;;6.28;4.47;;;;;;;0.90;63.92;94804.53;5026335;28;20060;-77
2022/02/08 01:22:57;;;;;;;5.93;4.13;;;;;;;0.87;64.24;94815.34;5027997;28;20480;-76
2022/02/08 01:25:29;;;;;;;9.68;4.90;;;;;;;0.79;63.56;94818.63;5026026;28;20055;-77
2022/02/08 01:27:59;;;;;;;9.13;4.22;;;;;;;0.73;63.86;94806.81;5027537;28;20037;-77
2022/02/08 01:30:30;;;;;;;7.78;4.75;;;;;;;0.73;64.78;94827.06;5026124;28;20055;-76
2022/02/08 01:35:47;;;;;;;8.10;5.03;;;;;;;0.77;63.61;94817.94;5027114;28;20068;-77
2022/02/08 01:38:18;;;;;;;7.15;4.53;;;;;;;0.73;64.43;94816.50;5025994;28;20488;-77
2022/02/08 01:45:46;;;;;;;6.72;4.90;;;;;;;0.67;64.18;94817.03;5027222;28;20041;-76
2022/02/08 01:50:55;;;;;;;7.22;4.90;;;;;;;0.61;64.01;94818.41;5025965;28;20083;-77
2022/02/08 01:53:22;;;;;;;7.90;4.40;;;;;;;0.62;63.52;94833.28;5026968;28;20033;-77
2022/02/08 01:55:47;;;;;;;6.07;4.63;;;;;;;0.61;64.67;94824.50;5025620;28;20026;-77
2022/02/08 01:58:13;;;;;;;8.00;5.10;;;;;;;0.56;64.11;94813.53;5026178;28;20026;-76
2022/02/08 02:00:38;;;;;;;7.28;5.03;;;;;;;0.57;63.91;94830.19;5009412;28;20032;-76
2022/02/08 02:03:04;;;;;;;5.80;4.65;;;;;;;0.51;65.05;94835.97;5027138;28;20033;-76
2022/02/08 02:05:30;;;;;;;6.38;4.90;;;;;;;0.53;64.50;94816.44;5025298;28;20091;-76
2022/02/08 02:07:57;;;;;;;9.05;5.53;;;;;;;0.51;65.11;94828.91;5025769;28;20037;-75
2022/02/08 02:10:24;;;;;;;6.82;5.13;;;;;;;0.52;64.32;94853.47;5025285;28;20037;-76
2022/02/08 02:13:00;;;;;;;6.22;4.70;;;;;;;0.56;64.33;94855.75;5008954;28;20098;-77
2022/02/08 02:15:26;;;;;;;8.25;5.30;;;;;;;0.55;64.43;94853.25;5026244;28;20042;-76
2022/02/08 02:17:51;;;;;;;8.25;5.82;;;;;;;0.58;64.32;94851.16;5025457;28;20021;-75
2022/02/08 02:20:17;;;;;;;7.18;5.25;;;;;;;0.60;64.92;94859.78;5008759;28;20112;-75
2022/02/08 02:22:42;;;;;;;7.55;5.25;;;;;;;0.53;64.93;94856.03;5026307;28;20056;-75
2022/02/08 02:25:22;;;;;;;6.30;4.78;;;;;;;0.49;64.97;94859.88;5025273;28;20025;-77
2022/02/08 02:27:49;;;;;;;7.90;4.93;;;;;;;0.54;64.76;94876.16;5025385;28;20109;-77
2022/02/08 02:30:15;;;;;;;5.82;4.68;;;;;;;0.51;64.69;94884.34;5008812;28;20040;-75
2022/02/08 02:32:41;;;;;;;7.15;4.82;;;;;;;0.52;65.25;94904.47;5026044;28;20033;-77
2022/02/08 02:35:07;;;;;;;6.90;5.25;;;;;;;0.49;65.29;94899.44;5026655;28;20029;-77
2022/02/08 02:37:32;;;;;;;6.80;5.15;;;;;;;0.57;64.60;94902.28;5008353;28;20052;-77
2022/02/08 02:39:58;;;;;;;6.25;4.97;;;;;;;0.56;64.46;94905.06;5024946;28;20040;-76
2022/02/08 02:42:26;;;;;;;6.85;5.00;;;;;;;0.62;64.85;94907.19;5025343;28;20041;-76
2022/02/08 02:44:51;;;;;;;6.70;4.90;;;;;;;0.64;64.13;94905.25;5024800;28;20120;-75
2022/02/08 02:47:17;;;;;;;6.65;4.95;;;;;;;0.71;64.06;94916.13;5026212;28;20079;-77
2022/02/08 02:49:42;;;;;;;8.20;5.25;;;;;;;0.68;64.42;94924.28;5026040;28;20041;-76
2022/02/08 02:52:08;;;;;;;6.97;5.03;;;;;;;0.66;64.85;94931.53;5026262;28;20504;-76
2022/02/08 02:54:33;;;;;;;7.03;5.55;;;;;;;0.68;64.47;94932.22;5024464;28;20030;-78
2022/02/08 02:57:00;;;;;;;6.60;4.95;;;;;;;0.76;64.27;94927.13;5025051;28;20326;-76
2022/02/08 02:59:26;;;;;;;6.38;4.97;;;;;;;0.76;63.33;94939.50;5024681;28;20025;-76
2022/02/08 03:20:45;;;;;;;8.65;5.30;;;;;;;0.83;62.20;94912.47;5029667;28;20030;-77
2022/02/08 03:23:10;;;;;;;6.10;4.90;;;;;;;0.88;62.59;94919.13;5028506;28;20381;-77
2022/02/08 03:25:36;;;;;;;6.93;4.93;;;;;;;0.87;62.60;94923.59;5029943;28;20503;-78
2022/02/08 03:28:01;;;;;;;7.82;5.00;;;;;;;0.94;62.05;94926.53;5029549;28;20033;-76
2022/02/08 03:30:27;;;;;;;6.35;5.03;;;;;;;0.89;61.90;94931.41;5029593;28;20026;-75
2022/02/08 03:32:53;;;;;;;5.50;4.45;;;;;;;0.88;62.56;94933.19;5030002;28;20032;-76
2022/02/08 03:35:19;;;;;;;6.95;4.78;;;;;;;0.90;62.52;94946.25;5011889;28;20419;-76
2022/02/08 03:37:54;;;;;;;6.38;4.32;;;;;;;0.89;62.19;94947.25;5029588;28;20489;-76
2022/02/08 03:40:35;;;;;;;6.18;4.20;;;;;;;0.91;62.73;94963.78;5028510;28;20108;-76
2022/02/08 03:43:14;;;;;;;5.88;4.40;;;;;;;0.94;61.20;94963.50;5029528;28;20037;-77
2022/02/08 03:45:43;;;;;;;5.45;4.13;;;;;;;0.99;61.18;94963.97;5028423;28;20060;-76
2022/02/08 03:48:10;;;;;;;5.60;4.15;;;;;;;0.95;62.16;94973.13;5028134;28;20025;-75
2022/02/08 03:50:35;;;;;;;6.50;4.10;;;;;;;0.94;62.11;94972.28;5029252;28;20079;-75
2022/02/08 03:53:01;;;;;;;6.63;4.65;;;;;;;0.96;61.11;94969.50;5027816;28;20025;-76
2022/02/08 03:55:26;;;;;;;6.38;4.70;;;;;;;0.88;61.68;94964.03;5027800;28;20392;-77
2022/02/08 03:57:52;;;;;;;7.10;4.47;;;;;;;0.88;61.72;94958.75;5028805;28;20411;-77
2022/02/08 04:00:18;;;;;;;7.88;5.50;;;;;;;0.84;62.76;94971.38;5029049;28;20037;-77
2022/02/08 04:02:48;;;;;;;6.25;4.43;;;;;;;0.93;61.87;94972.41;5028962;28;20519;-77
2022/02/08 04:05:31;;;;;;;6.55;5.05;;;;;;;0.96;61.50;94972.16;5027911;28;20507;-77
2022/02/08 04:08:01;;;;;;;8.68;5.88;;;;;;;1.01;62.04;94977.03;5027804;28;20187;-77
2022/02/08 04:10:29;;;;;;;5.63;4.32;;;;;;;1.00;61.70;94996.50;5027839;28;20112;-75
2022/02/08 04:41:37;;;;;;;4.55;3.63;;;;;;;1.01;59.72;95048.34;5027199;28;20116;-76
2022/02/08 04:44:23;;;;;;;5.05;3.80;;;;;;;0.96;60.15;95046.94;5027001;28;20033;-75
2022/02/08 04:49:29;;;;;;;6.53;4.10;;;;;;;1.03;59.76;95049.88;5027114;28;20030;-75
2022/02/08 04:51:59;;;;;;;6.63;4.32;;;;;;;1.05;59.88;95047.97;5027030;28;20056;-75
2022/02/08 04:54:41;;;;;;;6.10;4.45;;;;;;;0.98;59.22;95054.75;5028076;28;20400;-77
2022/02/08 04:57:17;;;;;;;6.10;4.80;;;;;;;0.98;59.42;95054.75;5027951;28;20029;-77
2022/02/08 05:26:39;;;;;;;9.70;5.05;;;;;;;0.98;58.79;95060.03;5028095;28;20484;-76
2022/02/08 05:40:52;;;;;;;5.85;4.10;;;;;;;0.29;60.75;95091.88;5026881;28;20048;-75
2022/02/08 05:43:44;;;;;;;5.90;3.92;;;;;;;0.31;60.08;95107.56;5026855;28;20053;-77
2022/02/08 05:48:40;;;;;;;6.20;3.95;;;;;;;0.33;60.65;95119.69;5026942;28;20026;-76
2022/02/08 05:51:13;;;;;;;5.88;4.05;;;;;;;0.32;60.17;95125.91;5025848;28;20029;-76
2022/02/08 05:53:42;;;;;;;6.47;3.90;;;;;;;0.29;60.21;95125.34;5026681;28;20164;-76
2022/02/08 05:56:09;;;;;;;5.30;3.95;;;;;;;0.38;60.07;95148.34;5026946;28;20037;-77
2022/02/08 05:58:35;;;;;;;6.65;4.22;;;;;;;0.47;60.68;95152.06;5025429;28;20029;-77
2022/02/08 06:01:00;;;;;;;7.25;4.38;;;;;;;0.51;60.13;95152.66;5025490;28;20057;-77
2022/02/08 06:03:26;;;;;;;5.45;3.92;;;;;;;0.49;59.95;95165.97;5008946;28;20026;-77
2022/02/08 06:05:51;;;;;;;5.93;4.20;;;;;;;0.44;60.55;95176.03;5009293;28;20021;-76
2022/02/08 06:08:17;;;;;;;5.43;3.75;;;;;;;0.47;59.78;95184.56;5026823;28;20026;-75
2022/02/08 06:10:57;;;;;;;6.57;4.10;;;;;;;0.39;60.26;95188.78;5026174;28;20527;-76
2022/02/08 06:13:22;;;;;;;9.57;4.00;;;;;;;0.43;60.57;95198.13;5026750;28;20029;-77
2022/02/08 06:15:50;;;;;;;6.18;4.40;;;;;;;0.46;60.01;95203.16;5025219;28;20045;-76
2022/02/08 06:18:16;;;;;;;5.63;3.70;;;;;;;0.52;60.57;95207.09;5027021;28;20025;-76
2022/02/08 06:20:41;;;;;;;10.38;4.38;;;;;;;0.52;60.20;95218.50;5026065;28;20528;-76
2022/02/08 06:23:07;;;;;;;7.15;3.92;;;;;;;0.63;59.26;95219.50;5009019;28;20167;-76
2022/02/08 06:25:33;;;;;;;7.50;4.30;;;;;;;0.57;59.79;95221.63;5026250;28;20034;-76
2022/02/08 06:27:58;;;;;;;6.97;4.25;;;;;;;0.59;59.29;95219.72;5008594;28;20502;-77
2022/02/08 06:30:24;;;;;;;5.95;4.30;;;;;;;0.62;59.53;95234.47;5026265;28;20018;-76
2022/02/08 06:32:52;;;;;;;7.95;5.00;;;;;;;0.68;59.16;95233.13;5008428;28;20032;-79
2022/02/08 06:35:23;;;;;;;6.22;4.35;;;;;;;0.70;59.03;95236.50;5008835;28;20029;-78
2022/02/08 06:37:49;;;;;;;7.43;4.32;;;;;;;0.67;59.94;95242.03;5024550;28;20112;-77
2022/02/08 06:40:15;;;;;;;6.28;4.10;;;;;;;0.71;59.32;95239.03;4992385;28;20104;-77
2022/02/08 06:42:41;;;;;;;6.40;4.30;;;;;;;0.59;59.32;95248.75;5024628;28;20048;-78
2022/02/08 06:45:08;;;;;;;7.38;4.07;;;;;;;0.55;59.16;95257.84;5024570;28;20025;-77
2022/02/08 06:47:33;;;;;;;8.25;4.03;;;;;;;0.53;60.05;95265.09;5008343;28;20025;-77
2022/02/08 06:49:59;;;;;;;7.82;4.53;;;;;;;0.55;59.54;95271.06;5024956;28;20029;-76
2022/02/08 06:52:25;;;;;;;7.10;4.43;;;;;;;0.48;60.20;95285.69;5024793;28;20028;-77
2022/02/08 06:54:51;;;;;;;7.38;4.57;;;;;;;0.46;60.18;95293.75;5026004;28;20037;-76
2022/02/08 06:57:17;;;;;;;9.40;4.47;;;;;;;0.47;60.62;95282.22;5026236;28;20029;-77
2022/02/08 06:59:50;;;;;;;8.52;3.70;;;;;;;0.47;60.50;95286.63;5024876;28;20044;-76
2022/02/08 07:02:15;;;;;;;;;;;;;;;0.48;60.36;95290.97;5025375;28;20159;-75
2022/02/08 07:04:40;;;;;;;8.90;3.67;;;;;;;0.43;60.54;95303.69;5024584;28;19921;-75
2022/02/08 07:07:07;;;;;;;10.05;4.68;;;;;;;0.42;60.17;95307.28;5008014;28;20147;-76
2022/02/08 07:09:32;;;;;;;6.57;4.30;;;;;;;0.36;60.77;95319.97;5024671;28;20092;-76
2022/02/08 07:11:59;;;;;;;6.28;4.68;;;;;;;0.39;61.09;95318.91;5025871;28;20041;-76
2022/02/08 07:14:29;;;;;;;7.63;4.63;;;;;;;0.43;60.57;95332.72;5025656;28;20492;-78
2022/02/08 07:16:54;;;;;;;9.40;4.80;;;;;;;0.44;60.46;95332.59;5025613;28;20033;-76
2022/02/08 07:19:20;;;;;;;7.35;4.53;;;;;;;0.48;60.81;95339.31;5024579;28;20033;-75
2022/02/08 07:21:45;;;;;;;7.20;4.63;;;;;;;0.45;60.97;95346.63;5024242;28;20040;-76
2022/02/08 07:24:11;;;;;;;6.25;4.47;;;;;;;0.46;60.69;95340.38;5025795;28;20033;-77
2022/02/08 07:26:37;;;;;;;9.40;5.07;;;;;;;0.57;59.96;95353.59;5025869;28;20472;-75
2022/02/08 07:29:03;;;;;;;7.95;5.00;;;;;;;0.60;60.23;95358.66;5024284;28;20083;-76
2022/02/08 07:31:36;;;;;;;6.05;4.03;;;;;;;0.63;60.11;95373.41;5008107;28;20104;-75
2022/02/08 07:34:16;;;;;;;5.55;4.28;;;;;;;0.59;60.31;95359.63;5024256;28;20473;-76
2022/02/08 07:36:48;;;;;;;6.72;4.15;;;;;;;0.63;59.58;95367.31;5010082;28;20033;-77
2022/02/08 07:39:24;;;;;;;10.55;5.05;;;;;;;0.65;60.45;95368.00;5024623;28;20111;-76
2022/02/08 07:41:49;;;;;;;5.93;4.30;;;;;;;0.70;59.56;95365.88;5024288;28;20133;-76
2022/02/08 07:44:15;;;;;;;5.65;4.03;;;;;;;0.72;59.19;95358.69;5025758;28;20018;-75
2022/02/08 07:46:40;;;;;;;6.03;4.13;;;;;;;0.71;58.63;95351.72;5024483;28;20559;-76
2022/02/08 07:49:06;;;;;;;5.95;3.80;;;;;;;0.74;59.00;95356.78;5024082;28;20026;-76
2022/02/08 07:51:37;;;;;;;6.40;4.40;;;;;;;0.77;58.05;95363.59;5007699;28;20022;-77
2022/02/08 07:54:03;;;;;;;8.30;4.57;;;;;;;0.85;57.16;95362.03;5024054;28;20562;-76
2022/02/08 07:56:28;;;;;;;6.80;4.22;;;;;;;0.95;57.67;95370.09;5026313;28;20492;-79
2022/02/08 07:58:54;;;;;;;6.00;3.95;;;;;;;1.02;57.57;95369.59;5027393;28;20073;-76
2022/02/08 08:01:19;;;;;;;5.32;3.58;;;;;;;1.11;57.17;95382.94;5027602;28;20065;-76
2022/02/08 08:03:45;;;;;;;5.95;4.50;;;;;;;1.17;56.54;95386.06;5011426;28;20073;-78
2022/02/08 08:06:11;;;;;;;6.95;4.00;;;;;;;1.23;56.73;95391.72;5027568;28;20075;-75
2022/02/08 08:08:37;;;;;;;8.13;4.53;;;;;;;1.27;56.43;95397.63;5027624;28;20028;-77
2022/02/08 08:11:08;;;;;;;5.20;3.53;;;;;;;1.37;55.16;95399.53;5011253;28;20030;-77
2022/02/08 08:13:38;;;;;;;3.45;2.40;;;;;;;1.50;54.10;95404.69;5011725;28;20038;-76
2022/02/08 08:16:14;;;;;;;6.38;3.25;;;;;;;1.52;55.18;95414.19;5027384;28;20049;-79
2022/02/08 08:18:58;;;;;;;4.82;3.50;;;;;;;1.57;55.24;95414.66;5029435;28;20032;-77
2022/02/08 08:21:24;;;;;;;5.35;4.10;;;;;;;1.57;56.18;95413.81;5028727;28;20095;-78
2022/02/08 08:23:50;;;;;;;5.70;3.83;;;;;;;1.60;56.14;95432.06;5011100;28;20038;-78
2022/02/08 08:26:16;;;;;;;6.07;4.05;;;;;;;1.64;56.57;95435.31;5010699;28;20034;-76
2022/02/08 08:28:41;;;;;;;6.00;3.40;;;;;;;1.71;55.77;95439.16;5027592;28;20383;-79
2022/02/08 08:31:07;;;;;;;5.35;3.83;;;;;;;1.76;55.52;95452.84;5028871;28;20459;-78
2022/02/08 08:33:32;;;;;;;5.82;3.88;;;;;;;1.83;55.87;95446.13;5027202;28;20482;-80
2022/02/08 08:35:58;;;;;;;7.57;4.63;;;;;;;1.85;56.47;95452.13;5028322;28;20502;-77
2022/02/08 08:38:25;;;;;;;7.15;4.53;;;;;;;1.92;55.97;95455.13;5010941;28;20056;-78
2022/02/08 08:41:05;;;;;;;6.65;4.35;;;;;;;1.95;57.23;95456.69;5027122;28;20029;-76
2022/02/08 08:48:50;;;;;;;5.82;4.22;;;;;;;2.17;55.93;95461.09;5028427;28;20068;-77
2022/02/08 08:51:51;;;;;;;5.50;4.10;;;;;;;2.20;55.15;95467.94;5028169;28;20033;-77
2022/02/08 08:54:08;;;;;;;5.82;3.78;;;;;;;2.20;55.37;95466.13;5026570;28;20056;-76
2022/02/08 08:56:37;;;;;;;8.70;4.82;;;;;;;2.25;55.23;95463.09;5028081;28;20061;-77
2022/02/08 08:59:04;;;;;;;7.22;4.03;;;;;;;2.32;54.98;95466.94;5026955;28;20413;-76
2022/02/08 09:01:29;;;;;;;9.45;3.55;;;;;;;2.43;52.41;95457.28;5028171;28;20462;-77
2022/02/08 09:03:55;;;;;;;3.17;2.20;;;;;;;2.51;50.67;95444.25;5010371;28;20029;-78
2022/02/08 09:06:20;;;;;;;5.78;3.30;;;;;;;2.57;51.47;95464.94;5026311;28;20022;-76
2022/02/08 09:08:46;;;;;;;8.88;4.07;;;;;;;2.64;53.13;95452.03;5026720;28;20025;-77
2022/02/08 09:13:44;;;;;;;5.55;4.03;;;;;;;2.68;55.00;95471.97;5027988;28;20075;-76
2022/02/08 09:16:24;;;;;;;6.43;3.55;;;;;;;2.66;52.84;95465.13;5026379;28;20125;-77
2022/02/08 09:21:44;;;;;;;5.22;2.88;;;;;;;2.84;50.22;95460.09;5027690;28;20044;-76
2022/02/08 09:24:29;;;;;;;5.20;2.63;;;;;;;2.88;50.03;95466.00;5027960;28;20033;-76
2022/02/08 09:27:18;;;;;;;6.45;2.70;;;;;;;2.90;50.42;95449.00;5028151;28;20030;-77
2022/02/08 09:29:49;;;;;;;8.30;2.40;;;;;;;2.91;49.73;95465.72;5026853;28;20029;-77
2022/02/08 09:32:27;;;;;;;4.38;2.38;;;;;;;2.99;48.36;95467.72;5028732;28;20033;-76
2022/02/08 09:34:53;;;;;;;2.42;2.03;;;;;;;3.06;48.62;95472.38;5013830;28;20037;-76
2022/02/08 09:37:18;;;;;;;3.10;2.10;;;;;;;3.13;48.68;95469.25;5028786;28;20462;-76
2022/02/08 09:39:45;;;;;;;4.05;2.63;;;;;;;3.17;47.88;95491.84;5027662;28;20052;-76
2022/02/08 09:42:11;;;;;;;3.58;2.45;;;;;;;3.24;48.40;95486.88;5025978;28;20029;-76
2022/02/08 09:44:37;;;;;;;4.40;2.25;;;;;;;3.30;48.77;95476.59;5009700;28;20399;-77
2022/02/08 09:47:10;;;;;;;4.78;2.13;;;;;;;3.26;48.60;95474.31;5027603;28;20017;-77
2022/02/08 09:49:41;;;;;;;3.42;2.00;;;;;;;3.25;47.53;95462.91;5027267;28;20034;-79
2022/02/08 09:52:07;;;;;;;4.05;2.20;;;;;;;3.21;47.79;95466.75;5010212;28;20044;-77
2022/02/08 09:54:33;;;;;;;4.78;2.33;;;;;;;3.18;46.29;95461.72;5025957;28;20041;-76
2022/02/08 09:56:58;;;;;;;2.78;2.05;;;;;;;3.22;47.58;95457.84;5026927;28;20061;-75
2022/02/08 09:59:24;;;;;;;4.15;2.40;;;;;;;3.19;46.76;95452.81;5026902;28;20033;-77
2022/02/08 10:01:56;;;;;;;3.78;2.25;;;;;;;3.31;46.16;95461.50;5027070;28;20029;-76
2022/02/08 10:04:21;;;;;;;3.33;2.17;;;;;;;3.26;47.01;95472.50;5025520;28;20492;-77
2022/02/08 10:06:47;;;;;;;3.70;2.40;;;;;;;3.27;47.54;95476.88;5025729;28;20268;-76
2022/02/08 10:09:12;;;;;;;4.85;2.47;;;;;;;3.44;47.23;95482.53;5027186;28;20033;-77
2022/02/08 10:11:45;;;;;;;4.03;2.50;;;;;;;3.65;47.73;95481.63;5026519;28;20030;-77
2022/02/08 10:22:32;;;;;;;2.80;2.10;;;;;;;3.95;46.08;95487.91;5025939;28;20511;-77
2022/02/08 10:25:09;;;;;;;3.17;2.20;;;;;;;3.95;46.07;95479.94;5025559;28;20017;-76
2022/02/08 10:27:42;;;;;;;5.63;2.20;;;;;;;3.99;45.53;95489.31;5025193;28;20037;-76
2022/02/08 10:31:18;;;;;;;3.33;2.13;;;;;;;3.98;45.72;95489.47;5025587;28;20117;-78
2022/02/08 10:39:00;;;;;;;5.60;2.58;;;;;;;3.79;46.85;95480.47;5011728;28;20172;-77
2022/02/08 10:41:25;;;;;;;4.80;2.53;;;;;;;3.76;47.66;95483.34;5020822;28;20057;-77
2022/02/08 10:44:05;;;;;;;4.75;2.70;;;;;;;3.69;46.96;95485.72;5008468;28;20483;-76
2022/02/08 10:46:31;;;;;;;3.22;2.00;;;;;;;3.69;47.15;95497.16;5025498;28;20031;-76
2022/02/08 10:49:05;;;;;;;3.72;2.35;;;;;;;3.57;47.64;95506.19;5026662;28;20052;-77
2022/02/08 10:51:36;;;;;;;2.97;2.25;;;;;;;3.57;47.81;95504.38;5026234;28;20071;-77
2022/02/08 10:54:07;;;;;;;4.10;2.45;;;;;;;3.57;49.04;95499.06;5009350;28;20044;-76
2022/02/08 10:56:35;;;;;;;6.65;3.58;;;;;;;3.59;47.79;95509.53;5009196;28;20519;-75
2022/02/08 10:59:22;;;;;;;5.50;3.00;;;;;;;3.51;48.31;95506.72;5026187;28;20033;-77
2022/02/08 11:02:04;;;;;;;5.43;2.70;;;;;;;3.51;47.59;95510.22;5010850;28;20026;-76
2022/02/08 11:04:43;;;;;;;4.85;3.03;;;;;;;3.48;47.77;95496.38;5025001;28;20459;-78
2022/02/08 11:07:23;;;;;;;7.15;2.50;;;;;;;3.43;47.98;95508.19;5010514;28;20183;-77
2022/02/08 11:10:13;;;;;;;3.70;2.60;;;;;;;3.43;49.19;95510.00;5026080;28;20046;-78
2022/02/08 11:20:51;;;;;;;4.47;2.88;;;;;;;3.26;50.68;95517.56;5011206;28;20040;-76
2022/02/08 11:23:32;;;;;;;6.53;2.50;;;;;;;3.23;51.23;95520.50;5024615;28;20034;-77
2022/02/08 11:25:58;;;;;;;6.35;3.53;;;;;;;3.14;50.60;95508.00;5024567;28;20025;-76
2022/02/08 11:28:33;;;;;;;9.15;3.20;;;;;;;3.11;50.01;95534.78;5026077;28;20844;-78
2022/02/08 11:33:59;;;;;;;5.23;3.17;;;;;;;3.21;51.58;95530.38;5013898;28;20037;-77
2022/02/08 12:10:24;;;;;;;6.35;2.58;;;;;;;3.79;46.62;95520.25;5011714;28;20487;-76
2022/02/08 12:32:15;;;;;;;6.82;3.30;;;;;;;3.98;46.70;95524.81;5013617;28;20033;-77
2022/02/08 12:48:53;;;;;;;5.80;2.28;;;;;;;4.13;43.52;95527.06;5036167;28;20096;-77
2022/02/08 12:57:04;;;;;;;5.28;2.70;;;;;;;4.21;42.18;95548.47;5028177;28;20037;-76
2022/02/08 12:59:47;;;;;;;9.75;3.05;;;;;;;4.23;42.21;95551.84;5027069;28;20504;-76
2022/02/08 14:01:54;;;;;;;7.20;3.28;;;;;;;4.30;42.56;95610.56;5026978;28;20536;-79
2022/02/08 14:07:27;;;;;;;6.68;3.08;;;;;;;4.29;42.47;95609.72;5036370;28;20135;-77
2022/02/08 14:33:53;;;;;;;8.15;3.30;;;;;;;4.22;44.61;95656.38;5025196;28;20033;-78
2022/02/08 15:06:30;;;;;;;3.95;2.60;;;;;;;3.85;42.90;95701.97;5030920;28;20083;-78
2022/02/08 15:08:37;;;;;;;5.30;2.90;;;;;;;3.83;43.84;95712.72;5030972;28;20110;-77
2022/02/08 15:11:07;;;;;;;4.93;2.00;;;;;;;3.82;43.23;95706.56;5014989;28;20029;-78
2022/02/08 15:13:32;;;;;;;5.60;2.20;;;;;;;3.75;42.56;95708.03;5015119;28;20040;-76
2022/02/08 15:18:52;;;;;;;4.90;2.50;;;;;;;3.66;42.75;95733.50;5018527;28;20045;-77
2022/02/08 15:21:26;;;;;;;6.93;2.67;;;;;;;3.62;43.08;95726.78;5032136;28;20033;-78
2022/02/08 15:23:52;;;;;;;7.15;3.42;;;;;;;3.63;43.43;95733.75;5015963;28;20121;-78
2022/02/08 15:26:17;;;;;;;6.00;2.42;;;;;;;3.62;43.24;95736.53;5032558;28;20025;-77
2022/02/08 15:28:43;;;;;;;7.28;2.63;;;;;;;3.64;43.48;95746.09;5014454;28;20025;-78
2022/02/08 15:31:08;;;;;;;8.18;2.50;;;;;;;3.66;43.07;95748.59;5014703;28;20040;-78
2022/02/08 15:33:34;;;;;;;5.13;2.70;;;;;;;3.64;43.80;95756.69;5033001;28;20034;-75
2022/02/08 15:35:59;;;;;;;3.85;2.40;;;;;;;3.62;42.97;95755.97;5033726;28;20058;-78
2022/02/08 15:38:29;;;;;;;5.80;2.45;;;;;;;3.64;42.71;95754.03;5032306;28;20396;-78
2022/02/08 15:40:55;;;;;;;5.00;2.45;;;;;;;3.61;42.54;95754.25;5032198;28;20025;-78
2022/02/08 15:43:21;;;;;;;4.57;2.20;;;;;;;3.56;41.85;95761.78;5014669;28;20037;-77
2022/02/08 15:45:52;;;;;;;4.82;2.30;;;;;;;3.59;41.54;95757.03;5032367;28;20030;-78
2022/02/08 15:48:22;;;;;;;9.05;3.03;;;;;;;3.54;41.57;95785.78;5032411;28;20026;-77
2022/02/08 15:53:31;;;;;;;8.20;3.95;;;;;;;3.53;43.63;95785.91;5030878;28;20036;-76
2022/02/08 16:00:19;;;;;;;7.78;3.30;;;;;;;3.55;45.94;95797.19;5031122;28;20032;-78
2022/02/08 16:01:16;;;;;;;5.82;3.13;;;;;;;3.51;46.88;95799.28;5028788;28;20029;-78
2022/02/08 16:09:46;;;;;;;10.32;3.53;;;;;;;3.40;47.43;95812.56;5030808;28;20040;-76
2022/02/08 16:12:49;;;;;;;9.85;3.60;;;;;;;3.34;47.23;95817.38;5032331;28;20049;-77
2022/02/08 16:18:16;;;;;;;11.60;4.53;;;;;;;3.20;46.68;95831.75;5025345;28;20102;-77
2022/02/08 16:28:58;;;;;;;8.45;3.35;;;;;;;3.00;45.44;95864.28;5012443;28;20034;-76
2022/02/08 16:48:54;;;;;;;6.75;2.83;;;;;;;2.81;44.43;95878.91;5027479;28;20040;-76
2022/02/08 16:53:22;;;;;;;7.85;3.58;;;;;;;2.63;46.28;95886.50;5027325;28;20467;-77
2022/02/08 17:01:08;;;;;;;5.78;2.60;;;;;;;2.56;45.61;95884.28;5027062;28;20057;-79
2022/02/08 17:03:33;;;;;;;8.27;2.80;;;;;;;2.61;45.58;95888.41;5028266;28;20025;-76
2022/02/08 17:05:59;;;;;;;7.38;3.33;;;;;;;2.57;46.17;95893.06;5028204;28;20025;-78
2022/02/08 17:08:26;;;;;;;6.47;3.38;;;;;;;2.55;45.57;95894.97;5027855;28;20037;-75
2022/02/08 17:10:54;;;;;;;7.78;4.13;;;;;;;2.45;47.21;95893.03;5027889;28;20034;-79
2022/02/08 17:16:16;;;;;;;6.20;3.00;;;;;;;2.32;47.05;95908.16;5026855;28;20145;-77
2022/02/08 17:48:14;;;;;;;10.98;4.63;;;;;;;2.20;47.95;95969.00;5027156;28;20046;-78
2022/02/08 17:50:40;;;;;;;9.18;4.88;;;;;;;2.21;48.34;95977.75;5027182;28;20033;-77
2022/02/08 17:53:05;;;;;;;11.75;6.50;;;;;;;2.11;49.68;95977.59;5009373;28;20495;-76
2022/02/08 17:55:30;;;;;;;9.70;4.75;;;;;;;2.05;50.29;95980.66;5025757;28;20419;-77
2022/02/08 17:57:56;;;;;;;8.07;4.40;;;;;;;1.95;50.34;95972.56;5009331;28;20480;-76
2022/02/08 18:00:22;;;;;;;12.18;4.22;;;;;;;1.95;49.64;95985.78;5025701;28;20488;-79
2022/02/08 18:02:48;;;;;;;10.13;4.32;;;;;;;1.95;49.18;95994.56;5025670;28;20259;-78
2022/02/08 18:05:14;;;;;;;10.15;4.32;;;;;;;2.01;49.90;95981.84;4994285;28;20037;-77
2022/02/08 18:07:40;;;;;;;7.93;3.88;;;;;;;2.07;48.94;95986.69;5027686;28;20036;-78
2022/02/08 18:10:06;;;;;;;8.77;4.25;;;;;;;2.01;48.56;95984.50;5027138;28;20029;-75
2022/02/08 18:12:32;;;;;;;10.80;4.53;;;;;;;2.02;48.27;95994.97;5025950;28;20035;-77
2022/02/08 18:15:00;;;;;;;7.60;2.92;;;;;;;1.98;48.04;95996.97;5026031;28;20403;-79
2022/02/08 18:17:32;;;;;;;6.38;3.08;;;;;;;1.97;48.84;95997.09;5025383;28;20049;-76
2022/02/08 18:20:21;;;;;;;9.13;2.95;;;;;;;1.96;48.29;96000.69;5009941;28;20030;-78
2022/02/08 18:25:57;;;;;;;6.97;3.13;;;;;;;2.00;47.84;95990.75;5025601;28;20029;-79
2022/02/08 19:04:14;;;;;;;17.13;8.52;;;;;;;1.89;50.90;96047.91;5025084;28;20113;-78
2022/02/08 19:19:57;;;;;;;22.60;8.88;;;;;;;1.69;52.95;96066.00;5046351;28;20045;-77
2022/02/08 19:22:25;;;;;;;23.42;9.25;;;;;;;1.64;52.98;96073.44;5025965;28;20029;-77
2022/02/08 19:24:51;;;;;;;17.50;8.10;;;;;;;1.72;52.79;96073.75;5024579;28;20041;-75
2022/02/08 19:27:17;;;;;;;13.65;7.10;;;;;;;1.77;52.58;96076.09;5024824;28;20021;-77
2022/02/08 19:29:43;;;;;;;14.85;6.85;;;;;;;1.69;52.57;96076.59;5025064;28;20044;-77
2022/02/08 19:32:09;;;;;;;10.90;6.35;;;;;;;1.67;53.15;96078.50;5024345;28;20502;-77